createdAt,value
2022-10-26T00:01:30.463Z,67.19
2022-10-26T00:04:00.927Z,67.28
2022-10-26T00:06:29.935Z,67.25
2022-10-26T00:08:59.588Z,67.37
2022-10-26T00:11:27.976Z,67.23
2022-10-26T00:13:56.930Z,67.19
2022-10-26T00:16:27.365Z,67.28
2022-10-26T00:18:57.064Z,67.13
2022-10-26T00:21:27.026Z,67.39
2022-10-26T00:23:56.161Z,67.43
2022-10-26T00:26:25.119Z,67.47
2022-10-26T00:28:54.363Z,67.48
2022-10-26T00:31:23.998Z,67.71
2022-10-26T00:33:54.273Z,67.90
2022-10-26T00:36:23.950Z,67.61
2022-10-26T00:38:56.031Z,67.78
2022-10-26T00:41:27.804Z,68.12
2022-10-26T00:43:57.223Z,68.40
2022-10-26T00:46:28.871Z,69.13
2022-10-26T00:49:01.943Z,69.91
2022-10-26T00:51:33.625Z,69.39
2022-10-26T00:54:06.729Z,68.83
2022-10-26T00:56:36.398Z,69.22
2022-10-26T00:59:09.007Z,69.41
2022-10-26T01:01:41.618Z,69.10
2022-10-26T01:04:10.721Z,69.43
2022-10-26T01:06:40.390Z,69.71
2022-10-26T01:09:11.337Z,70.42
2022-10-26T01:11:40.500Z,70.53
2022-10-26T01:14:12.671Z,70.51
2022-10-26T01:17:00.236Z,70.68
2022-10-26T01:20:04.733Z,70.58
2022-10-26T01:22:38.485Z,70.74
2022-10-26T01:25:25.269Z,70.79
2022-10-26T01:27:54.903Z,70.67
2022-10-26T01:30:37.673Z,70.71
2022-10-26T01:33:16.941Z,70.90
2022-10-26T01:35:54.884Z,71.03
2022-10-26T01:38:32.225Z,70.68
2022-10-26T01:41:10.246Z,70.63
2022-10-26T01:43:44.731Z,70.58
2022-10-26T01:48:56.768Z,70.90
2022-10-26T01:51:28.096Z,71.17
2022-10-26T01:54:00.183Z,71.36
2022-10-26T01:56:33.169Z,71.28
2022-10-26T01:59:20.851Z,71.84
2022-10-26T02:02:13.434Z,72.16
2022-10-26T02:04:59.763Z,72.48
2022-10-26T02:07:36.812Z,72.56
2022-10-26T02:10:25.590Z,72.44
2022-10-26T02:13:05.020Z,72.91
2022-10-26T02:15:45.318Z,72.78
2022-10-26T02:18:25.008Z,72.84
2022-10-26T02:21:01.400Z,73.19
2022-10-26T02:23:34.542Z,73.34
2022-10-26T02:26:07.272Z,73.17
2022-10-26T02:28:42.239Z,73.46
2022-10-26T02:31:14.507Z,73.25
2022-10-26T02:33:50.928Z,73.20
2022-10-26T02:36:26.633Z,73.41
2022-10-26T02:38:58.422Z,73.41
2022-10-26T02:41:30.628Z,73.73
2022-10-26T02:44:05.688Z,73.32
2022-10-26T02:46:36.331Z,73.36
2022-10-26T02:49:07.316Z,73.52
2022-10-26T02:51:42.243Z,73.55
2022-10-26T02:54:17.282Z,73.39
2022-10-26T02:56:52.216Z,73.90
2022-10-26T02:59:26.032Z,73.70
2022-10-26T03:01:57.497Z,73.73
2022-10-26T03:04:33.249Z,73.44
2022-10-26T03:07:04.016Z,73.58
2022-10-26T03:09:33.492Z,73.70
2022-10-26T03:12:04.425Z,73.69
2022-10-26T03:14:34.728Z,73.79
2022-10-26T03:17:04.484Z,73.82
2022-10-26T03:19:35.436Z,73.83
2022-10-26T03:22:04.722Z,73.92
2022-10-26T03:24:34.271Z,74.09
2022-10-26T03:27:03.728Z,73.87
2022-10-26T03:29:33.478Z,74.04
2022-10-26T03:32:03.244Z,73.77
2022-10-26T03:34:34.663Z,73.97
2022-10-26T03:37:05.323Z,73.96
2022-10-26T03:39:35.003Z,74.12
2022-10-26T03:42:05.132Z,74.21
2022-10-26T03:44:34.508Z,74.02
2022-10-26T03:47:05.194Z,74.23
2022-10-26T03:49:37.208Z,73.90
2022-10-26T03:52:07.687Z,73.99
2022-10-26T03:54:37.189Z,73.79
2022-10-26T03:57:06.963Z,73.82
2022-10-26T03:59:37.892Z,74.14
2022-10-26T04:02:07.758Z,74.28
2022-10-26T04:04:40.424Z,74.58
2022-10-26T04:07:10.301Z,74.55
2022-10-26T04:09:40.575Z,74.87
2022-10-26T04:12:09.576Z,74.88
2022-10-26T04:14:39.315Z,74.66
2022-10-26T04:17:08.346Z,74.87
2022-10-26T04:19:40.031Z,74.37
2022-10-26T04:22:09.437Z,74.66
2022-10-26T04:24:38.293Z,74.90
2022-10-26T04:27:08.090Z,74.49
2022-10-26T04:29:37.032Z,74.44
2022-10-26T04:32:07.374Z,74.63
2022-10-26T04:34:39.769Z,74.55
2022-10-26T04:37:09.413Z,74.52
2022-10-26T04:39:39.249Z,74.58
2022-10-26T04:42:08.915Z,74.58
2022-10-26T04:47:31.222Z,74.38
2022-10-26T04:50:02.520Z,74.38
2022-10-26T04:52:33.753Z,74.70
2022-10-26T04:55:07.308Z,74.87
2022-10-26T04:57:38.195Z,74.83
2022-10-26T05:00:08.363Z,75.21
2022-10-26T05:02:39.660Z,75.80
2022-10-26T05:05:15.077Z,75.70
2022-10-26T05:07:48.438Z,75.76
2022-10-26T05:10:19.297Z,76.08
2022-10-26T05:12:53.169Z,76.19
2022-10-26T05:15:24.196Z,76.10
2022-10-26T05:17:58.567Z,76.23
2022-10-26T05:20:33.460Z,76.42
2022-10-26T05:23:04.562Z,76.55
2022-10-26T05:25:38.359Z,76.10
2022-10-26T05:28:12.302Z,76.25
2022-10-26T05:30:43.703Z,76.08
2022-10-26T05:33:15.984Z,76.25
2022-10-26T05:35:49.366Z,76.09
2022-10-26T05:38:20.835Z,76.33
2022-10-26T05:40:53.635Z,76.14
2022-10-26T05:43:26.036Z,75.67
2022-10-26T05:45:56.077Z,75.89
2022-10-26T05:48:26.841Z,75.89
2022-10-26T05:51:02.961Z,75.63
2022-10-26T05:53:32.817Z,75.85
2022-10-26T05:56:05.025Z,76.00
2022-10-26T05:58:36.685Z,75.89
2022-10-26T06:01:15.035Z,76.36
2022-10-26T06:03:57.591Z,76.30
2022-10-26T06:06:29.143Z,76.35
2022-10-26T06:08:58.904Z,76.54
2022-10-26T06:11:29.653Z,76.69
2022-10-26T06:14:01.657Z,76.40
2022-10-26T06:16:42.703Z,76.30
2022-10-26T06:19:25.015Z,76.60
2022-10-26T06:22:16.100Z,76.36
2022-10-26T06:24:54.546Z,76.70
2022-10-26T06:27:38.127Z,76.74
2022-10-26T06:30:12.060Z,76.44
2022-10-26T06:32:45.936Z,76.93
2022-10-26T06:35:27.098Z,76.64
2022-10-26T06:38:04.670Z,76.86
2022-10-26T06:40:38.982Z,76.89
2022-10-26T06:43:15.975Z,76.65
2022-10-26T06:45:50.733Z,77.02
2022-10-26T06:48:29.350Z,76.96
2022-10-26T06:51:00.131Z,76.95
2022-10-26T06:56:13.687Z,77.29
2022-10-26T06:58:47.498Z,77.31
2022-10-26T07:01:19.064Z,77.60
2022-10-26T07:03:50.089Z,77.77
2022-10-26T07:06:21.053Z,78.12
2022-10-26T07:08:53.625Z,78.40
2022-10-26T07:11:24.186Z,78.13
2022-10-26T07:13:54.799Z,78.21
2022-10-26T07:16:25.169Z,78.06
2022-10-26T07:18:55.795Z,78.00
2022-10-26T07:21:25.873Z,77.71
2022-10-26T07:23:58.925Z,77.69
2022-10-26T07:26:29.414Z,77.14
2022-10-26T07:28:59.024Z,77.26
2022-10-26T07:31:29.559Z,77.37
2022-10-26T07:33:59.037Z,77.42
2022-10-26T07:36:30.767Z,77.56
2022-10-26T07:39:02.074Z,77.47
2022-10-26T07:41:31.773Z,77.22
2022-10-26T07:44:02.637Z,77.16
2022-10-26T07:46:32.795Z,77.18
2022-10-26T07:49:03.202Z,76.94
2022-10-26T07:51:32.572Z,76.96
2022-10-26T07:54:05.018Z,76.86
2022-10-26T07:56:35.473Z,76.53
2022-10-26T07:59:06.077Z,76.63
2022-10-26T08:01:35.884Z,76.17
2022-10-26T08:04:06.182Z,76.10
2022-10-26T08:06:35.346Z,75.84
2022-10-26T08:09:06.722Z,75.67
2022-10-26T08:11:37.193Z,75.28
2022-10-26T08:14:07.319Z,75.21
2022-10-26T08:16:36.442Z,74.89
2022-10-26T08:19:06.252Z,74.99
2022-10-26T08:21:39.927Z,74.67
2022-10-26T08:24:12.603Z,74.79
2022-10-26T08:26:42.138Z,75.08
2022-10-26T08:29:11.090Z,74.76
2022-10-26T08:31:40.648Z,74.58
2022-10-26T08:34:09.849Z,74.47
2022-10-26T08:36:39.044Z,74.30
2022-10-26T08:39:08.411Z,73.94
2022-10-26T08:41:43.807Z,73.89
2022-10-26T08:44:26.677Z,73.74
2022-10-26T08:47:01.541Z,73.63
2022-10-26T08:49:42.158Z,73.26
2022-10-26T08:52:16.800Z,73.00
2022-10-26T08:54:52.995Z,72.43
2022-10-26T08:57:28.451Z,72.25
2022-10-26T09:00:01.767Z,71.70
2022-10-26T09:02:31.756Z,71.25
2022-10-26T09:05:01.759Z,70.86
2022-10-26T09:07:47.830Z,70.37
2022-10-26T09:10:29.035Z,70.18
2022-10-26T09:13:07.352Z,70.04
2022-10-26T09:15:47.674Z,69.55
2022-10-26T09:18:32.406Z,69.59
2022-10-26T09:21:17.696Z,69.16
2022-10-26T09:23:57.423Z,68.53
2022-10-26T09:26:33.333Z,67.66
2022-10-26T09:29:08.413Z,67.55
2022-10-26T09:31:43.371Z,67.54
2022-10-26T09:34:26.003Z,67.16
2022-10-26T09:36:57.418Z,66.77
2022-10-26T09:39:44.608Z,66.77
2022-10-26T09:42:20.448Z,65.97
2022-10-26T09:44:56.591Z,65.95
2022-10-26T09:47:33.751Z,65.85
2022-10-26T09:50:18.274Z,65.53
2022-10-26T09:52:47.565Z,65.35
2022-10-26T09:55:17.983Z,65.18
2022-10-26T09:57:49.558Z,64.94
2022-10-26T10:00:27.972Z,64.50
2022-10-26T10:02:58.686Z,64.11
2022-10-26T10:05:50.166Z,64.15
2022-10-26T10:08:23.604Z,64.13
2022-10-26T10:11:03.172Z,64.06
2022-10-26T10:13:34.878Z,64.10
2022-10-26T10:16:14.733Z,64.29
2022-10-26T10:18:44.271Z,63.72
2022-10-26T10:21:14.667Z,63.12
2022-10-26T10:23:54.786Z,62.41
2022-10-26T10:26:24.297Z,62.87
2022-10-26T10:29:01.995Z,62.59
2022-10-26T10:31:34.151Z,62.55
2022-10-26T10:34:18.126Z,61.91
2022-10-26T10:36:47.541Z,61.55
2022-10-26T10:39:34.966Z,61.16
2022-10-26T10:42:05.302Z,61.00
2022-10-26T10:44:36.804Z,61.25
2022-10-26T10:47:09.167Z,60.74
2022-10-26T10:49:40.393Z,61.35
2022-10-26T10:52:23.762Z,60.77
2022-10-26T10:55:03.313Z,61.05
2022-10-26T10:57:43.342Z,60.49
2022-10-26T11:00:14.296Z,59.91
2022-10-26T11:03:06.851Z,59.82
2022-10-26T11:06:01.703Z,59.65
2022-10-26T11:08:36.548Z,59.40
2022-10-26T11:11:11.182Z,59.56
2022-10-26T11:13:45.753Z,59.72
2022-10-26T11:16:19.479Z,59.92
2022-10-26T11:18:54.780Z,59.55
2022-10-26T11:21:29.853Z,59.31
2022-10-26T11:24:11.830Z,59.21
2022-10-26T11:26:47.415Z,59.28
2022-10-26T11:29:28.886Z,59.19
2022-10-26T11:32:06.018Z,59.49
2022-10-26T11:34:42.920Z,59.08
2022-10-26T11:37:19.196Z,59.60
2022-10-26T11:39:55.474Z,59.69
2022-10-26T11:42:35.248Z,59.77
2022-10-26T11:45:13.620Z,59.92
2022-10-26T11:47:50.567Z,59.77
2022-10-26T11:50:24.375Z,60.29
2022-10-26T11:53:00.206Z,60.07
2022-10-26T11:55:31.150Z,60.71
2022-10-26T11:58:03.221Z,60.72
2022-10-26T12:00:34.563Z,60.49
2022-10-26T12:03:09.282Z,60.17
2022-10-26T12:05:46.369Z,60.25
2022-10-26T12:08:24.652Z,59.92
2022-10-26T12:11:04.430Z,59.72
2022-10-26T12:13:40.276Z,59.56
2022-10-26T12:16:21.577Z,59.70
2022-10-26T12:18:57.327Z,59.32
2022-10-26T12:21:31.867Z,59.10
2022-10-26T12:24:05.572Z,59.10
2022-10-26T12:26:52.058Z,58.94
2022-10-26T12:30:16.329Z,58.93
2022-10-26T12:32:56.535Z,59.07
2022-10-26T12:35:44.614Z,59.23
2022-10-26T12:38:59.588Z,59.01
2022-10-26T12:41:31.313Z,58.99
2022-10-26T12:44:26.089Z,59.19
2022-10-26T12:46:56.634Z,59.29
2022-10-26T12:50:01.101Z,59.26
2022-10-26T12:52:50.714Z,58.83
2022-10-26T12:56:04.437Z,58.62
2022-10-26T12:59:04.897Z,58.37
2022-10-26T13:02:15.665Z,58.33
2022-10-26T13:05:10.322Z,58.49
2022-10-26T13:07:42.478Z,58.18
2022-10-26T13:10:22.982Z,58.44
2022-10-26T13:12:56.440Z,58.56
2022-10-26T13:15:29.387Z,58.34
2022-10-26T13:18:03.027Z,58.54
2022-10-26T13:20:36.056Z,58.69
2022-10-26T13:23:17.669Z,58.90
2022-10-26T13:26:03.399Z,58.96
2022-10-26T13:28:44.295Z,58.88
2022-10-26T13:31:40.017Z,59.32
2022-10-26T13:34:16.681Z,59.53
2022-10-26T13:36:51.642Z,59.28
2022-10-26T13:39:23.480Z,58.28
2022-10-26T13:41:54.915Z,57.84
2022-10-26T13:44:29.651Z,57.38
2022-10-26T13:47:02.486Z,56.42
2022-10-26T13:49:37.685Z,55.39
2022-10-26T13:52:14.729Z,54.47
2022-10-26T13:54:49.787Z,53.47
2022-10-26T13:57:22.751Z,52.81
2022-10-26T13:59:53.703Z,52.05
2022-10-26T14:02:25.577Z,51.55
2022-10-26T14:04:55.774Z,50.98
2022-10-26T14:07:28.330Z,50.56
2022-10-26T14:09:59.058Z,50.01
2022-10-26T14:12:30.000Z,49.55
2022-10-26T14:15:06.699Z,49.56
2022-10-26T14:17:36.852Z,49.83
2022-10-26T14:20:06.631Z,49.74
2022-10-26T14:22:35.270Z,49.35
2022-10-26T14:25:04.545Z,49.02
2022-10-26T14:27:39.481Z,49.21
2022-10-26T14:30:23.630Z,49.42
2022-10-26T14:32:53.620Z,49.83
2022-10-26T14:35:25.526Z,50.33
2022-10-26T14:37:57.242Z,50.52
2022-10-26T14:40:28.727Z,50.12
2022-10-26T14:43:00.446Z,50.36
2022-10-26T14:45:48.116Z,50.40
2022-10-26T14:48:23.714Z,50.74
2022-10-26T14:51:03.407Z,50.93
2022-10-26T14:53:36.711Z,51.31
2022-10-26T14:56:07.466Z,52.01
2022-10-26T14:58:36.814Z,51.99
2022-10-26T15:01:29.252Z,52.42
2022-10-26T15:04:03.441Z,53.17
2022-10-26T15:06:47.738Z,53.68
2022-10-26T15:09:33.773Z,54.09
2022-10-26T15:12:05.531Z,54.11
2022-10-26T15:14:35.001Z,54.91
2022-10-26T15:17:05.888Z,54.83
2022-10-26T15:19:40.941Z,55.11
2022-10-26T15:22:24.655Z,55.79
2022-10-26T15:24:59.731Z,56.22
2022-10-26T15:27:28.186Z,56.54
2022-10-26T15:30:13.527Z,56.86
2022-10-26T15:32:43.358Z,57.08
2022-10-26T15:35:39.304Z,57.15
2022-10-26T15:38:12.806Z,57.93
2022-10-26T15:40:44.516Z,57.99
2022-10-26T15:43:13.432Z,58.82
2022-10-26T15:45:49.461Z,58.94
2022-10-26T15:48:25.588Z,59.59
2022-10-26T15:50:54.831Z,59.89
2022-10-26T15:53:27.484Z,60.23
2022-10-26T15:55:58.564Z,60.32
2022-10-26T15:58:27.251Z,60.95
2022-10-26T16:00:56.636Z,61.21
2022-10-26T16:03:27.879Z,61.07
2022-10-26T16:05:59.467Z,61.81
2022-10-26T16:08:30.318Z,61.98
2022-10-26T16:10:59.182Z,61.92
2022-10-26T16:13:27.743Z,62.17
2022-10-26T16:15:56.115Z,62.53
2022-10-26T16:18:26.347Z,63.18
2022-10-26T16:20:55.122Z,63.03
2022-10-26T16:23:23.639Z,63.19
2022-10-26T16:25:52.103Z,63.53
2022-10-26T16:28:21.012Z,63.76
2022-10-26T16:30:49.776Z,63.76
2022-10-26T16:33:18.140Z,64.38
2022-10-26T16:35:56.671Z,64.54
2022-10-26T16:38:25.270Z,64.69
2022-10-26T16:41:02.526Z,64.73
2022-10-26T16:43:33.019Z,65.00
2022-10-26T16:46:05.515Z,64.92
2022-10-26T16:48:37.174Z,65.16
2022-10-26T16:51:08.915Z,65.72
2022-10-26T16:53:37.978Z,65.68
2022-10-26T16:56:08.489Z,65.66
2022-10-26T16:58:37.609Z,65.68
2022-10-26T17:01:07.332Z,65.83
2022-10-26T17:03:36.498Z,66.17
2022-10-26T17:06:08.056Z,66.33
2022-10-26T17:08:38.169Z,66.64
2022-10-26T17:11:09.114Z,66.41
2022-10-26T17:13:38.893Z,66.65
2022-10-26T17:16:09.257Z,66.67
2022-10-26T17:18:38.087Z,66.96
2022-10-26T17:21:08.982Z,67.03
2022-10-26T17:23:37.448Z,67.39
2022-10-26T17:26:08.333Z,67.56
2022-10-26T17:28:37.334Z,67.69
2022-10-26T17:31:07.711Z,67.33
2022-10-26T17:33:38.208Z,67.80
2022-10-26T17:36:09.722Z,67.74
2022-10-26T17:38:40.962Z,67.81
2022-10-26T17:41:12.420Z,67.89
2022-10-26T17:43:42.566Z,68.08
2022-10-26T17:46:13.318Z,67.99
2022-10-26T17:48:41.727Z,67.72
2022-10-26T17:51:14.487Z,68.04
2022-10-26T17:53:43.140Z,68.22
2022-10-26T17:56:13.856Z,68.16
2022-10-26T17:58:42.334Z,68.21
2022-10-26T18:01:13.526Z,68.51
2022-10-26T18:03:42.738Z,68.36
2022-10-26T18:06:12.505Z,68.42
2022-10-26T18:08:41.494Z,68.58
2022-10-26T18:11:14.046Z,68.72
2022-10-26T18:13:42.773Z,68.63
2022-10-26T18:16:13.556Z,68.50
2022-10-26T18:18:46.293Z,68.58
2022-10-26T18:21:16.422Z,68.68
2022-10-26T18:23:45.132Z,68.83
2022-10-26T18:26:16.582Z,68.66
2022-10-26T18:28:45.239Z,68.94
2022-10-26T18:31:16.151Z,69.19
2022-10-26T18:33:45.234Z,69.08
2022-10-26T18:36:17.746Z,69.04
2022-10-26T18:38:48.567Z,69.16
2022-10-26T18:41:19.486Z,69.55
2022-10-26T18:43:49.926Z,69.68
2022-10-26T18:46:23.234Z,69.66
2022-10-26T18:48:52.403Z,69.92
2022-10-26T18:51:25.321Z,69.74
2022-10-26T18:53:53.718Z,70.05
2022-10-26T18:56:24.363Z,70.12
2022-10-26T18:58:53.995Z,70.16
2022-10-26T19:01:25.320Z,70.12
2022-10-26T19:03:55.545Z,69.98
2022-10-26T19:06:27.479Z,70.14
2022-10-26T19:08:57.222Z,70.14
2022-10-26T19:11:27.786Z,70.31
2022-10-26T19:13:56.422Z,69.89
2022-10-26T19:16:45.394Z,70.17
2022-10-26T19:19:15.598Z,70.11
2022-10-26T19:21:46.456Z,69.84
2022-10-26T19:24:17.884Z,69.90
2022-10-26T19:26:47.446Z,69.81
2022-10-26T19:29:17.331Z,69.81
2022-10-26T19:31:47.164Z,69.76
2022-10-26T19:34:17.029Z,69.81
2022-10-26T19:36:48.152Z,69.61
2022-10-26T19:39:17.989Z,69.43
2022-10-26T19:41:47.092Z,69.79
2022-10-26T19:44:17.320Z,69.64
2022-10-26T19:46:47.510Z,69.81
2022-10-26T19:49:17.469Z,69.73
2022-10-26T19:51:48.637Z,69.67
2022-10-26T19:54:17.003Z,69.75
2022-10-26T19:56:46.650Z,69.79
2022-10-26T19:59:15.333Z,70.10
2022-10-26T20:01:44.171Z,69.73
2022-10-26T20:04:13.213Z,69.71
2022-10-26T20:06:41.888Z,69.81
2022-10-26T20:09:11.860Z,69.85
2022-10-26T20:11:42.938Z,69.97
2022-10-26T20:14:14.446Z,69.93
2022-10-26T20:16:42.823Z,69.93
2022-10-26T20:19:12.560Z,69.88
2022-10-26T20:21:40.992Z,69.91
2022-10-26T20:24:11.481Z,69.95
2022-10-26T20:26:40.069Z,70.18
2022-10-26T20:29:09.309Z,70.29
2022-10-26T20:31:37.655Z,70.22
2022-10-26T20:34:06.609Z,70.14
2022-10-26T20:36:35.231Z,70.20
2022-10-26T20:39:05.292Z,70.19
2022-10-26T20:41:42.762Z,70.31
2022-10-26T20:44:19.610Z,70.43
2022-10-26T20:46:49.086Z,70.26
2022-10-26T20:49:17.972Z,70.40
2022-10-26T20:52:18.996Z,70.26
2022-10-26T20:54:47.573Z,70.33
2022-10-26T20:57:21.763Z,70.49
2022-10-26T20:59:53.497Z,70.45
2022-10-26T21:02:22.455Z,70.51
2022-10-26T21:04:51.223Z,70.57
2022-10-26T21:07:20.119Z,70.40
2022-10-26T21:09:49.808Z,70.36
2022-10-26T21:12:19.905Z,70.61
2022-10-26T21:14:49.194Z,70.69
2022-10-26T21:17:17.833Z,70.84
2022-10-26T21:19:46.709Z,70.92
2022-10-26T21:22:15.883Z,71.14
2022-10-26T21:24:45.643Z,71.18
2022-10-26T21:27:14.329Z,71.15
2022-10-26T21:29:46.139Z,71.01
2022-10-26T21:32:16.254Z,71.19
2022-10-26T21:34:46.009Z,71.23
2022-10-26T21:37:15.403Z,71.28
2022-10-26T21:39:44.907Z,70.95
2022-10-26T21:42:14.109Z,71.23
2022-10-26T21:44:45.207Z,71.21
2022-10-26T21:47:14.164Z,71.18
2022-10-26T21:49:44.086Z,71.36
2022-10-26T21:52:13.129Z,71.05
2022-10-26T21:54:42.838Z,71.28
2022-10-26T21:57:11.615Z,71.38
2022-10-26T21:59:41.673Z,71.38
2022-10-26T22:02:12.500Z,71.24
2022-10-26T22:04:41.581Z,71.29
2022-10-26T22:07:11.699Z,71.11
2022-10-26T22:10:00.292Z,71.38
2022-10-26T22:12:30.384Z,71.54
2022-10-26T22:15:00.035Z,71.32
2022-10-26T22:17:30.700Z,71.55
2022-10-26T22:20:01.279Z,71.72
2022-10-26T22:22:31.321Z,71.86
2022-10-26T22:25:01.230Z,71.74
2022-10-26T22:27:31.106Z,71.78
2022-10-26T22:30:01.211Z,71.68
2022-10-26T22:32:32.245Z,71.81
2022-10-26T22:37:51.428Z,71.74
2022-10-26T22:40:21.006Z,71.70
2022-10-26T22:42:53.597Z,71.79
2022-10-26T22:45:23.103Z,71.76
2022-10-26T22:47:54.672Z,71.77
2022-10-26T22:50:24.295Z,71.77
2022-10-26T22:52:54.228Z,71.90
2022-10-26T22:55:24.130Z,71.81
2022-10-26T22:57:55.478Z,72.03
2022-10-26T23:00:25.378Z,72.08
2022-10-26T23:02:56.215Z,72.01
2022-10-26T23:05:25.715Z,72.21
2022-10-26T23:07:55.060Z,72.40
2022-10-26T23:10:24.352Z,72.33
2022-10-26T23:12:54.433Z,72.58
2022-10-26T23:15:23.790Z,72.35
2022-10-26T23:17:56.254Z,72.69
2022-10-26T23:20:25.025Z,72.77
2022-10-26T23:22:55.116Z,72.39
2022-10-26T23:25:23.961Z,71.70
2022-10-26T23:27:52.925Z,71.84
2022-10-26T23:30:22.116Z,71.65
2022-10-26T23:32:52.114Z,71.74
2022-10-26T23:35:23.037Z,71.87
2022-10-26T23:37:52.343Z,72.03
2022-10-26T23:40:22.179Z,72.08
2022-10-26T23:42:51.157Z,72.09
2022-10-26T23:45:20.929Z,72.11
2022-10-26T23:47:50.171Z,71.92
2022-10-26T23:50:19.379Z,71.88
2022-10-26T23:52:49.938Z,71.75
2022-10-26T23:55:19.947Z,71.89
2022-10-26T23:57:48.911Z,72.37
